Time;durP1;ratioP1;P1;durP2;ratioP2;P2;SDS_P1;SDS_P2;PMS_P1;PMS_P2;Temp;Humidity;BMP_temperature;BMP_pressure;BME280_temperature;BME280_humidity;BME280_pressure;Samples;Min_cycle;Max_cycle;Signal;HPM_P1;HPM_P2
2022/03/06 00:01:11;;;;;;;19.73;9.93;;;-3.20;96.40;;;;;;5055418;28;20021;-69
2022/03/06 00:03:37;;;;;;;21.90;9.38;;;-3.20;96.20;;;;;;5055343;28;20018;-69
2022/03/06 00:06:03;;;;;;;19.52;9.05;;;-3.20;96.20;;;;;;5055299;28;20381;-69
2022/03/06 00:08:28;;;;;;;19.38;8.60;;;-3.20;96.20;;;;;;5055505;28;20028;-69
2022/03/06 00:10:56;;;;;;;19.52;8.00;;;-3.30;96.00;;;;;;5055777;28;20464;-69
2022/03/06 00:13:22;;;;;;;19.00;8.90;;;-3.30;96.10;;;;;;5053972;28;20086;-69
2022/03/06 00:15:48;;;;;;;18.42;9.02;;;-3.30;96.20;;;;;;5055678;28;20497;-69
2022/03/06 00:18:14;;;;;;;17.70;8.60;;;-3.30;96.20;;;;;;5055337;28;20112;-68
2022/03/06 00:20:42;;;;;;;19.48;8.77;;;-3.30;96.20;;;;;;5053799;28;20055;-68
2022/03/06 00:23:08;;;;;;;21.92;9.23;;;-3.30;96.20;;;;;;5055285;28;20473;-68
2022/03/06 00:25:34;;;;;;;21.50;9.52;;;-3.40;96.20;;;;;;5055265;28;20107;-69
2022/03/06 00:28:00;;;;;;;17.40;8.02;;;-3.40;96.30;;;;;;5054946;28;20028;-68
2022/03/06 00:30:26;;;;;;;18.70;8.52;;;-3.40;96.40;;;;;;5054851;28;20045;-69
2022/03/06 00:32:52;;;;;;;21.27;8.88;;;-3.40;96.50;;;;;;5054731;28;20539;-69
2022/03/06 00:35:17;;;;;;;19.77;8.27;;;-3.50;96.50;;;;;;5055099;28;20063;-68
2022/03/06 00:37:43;;;;;;;22.90;8.68;;;-3.50;96.80;;;;;;5054623;28;20032;-68
2022/03/06 00:40:10;;;;;;;17.73;7.97;;;-3.50;97.10;;;;;;5054894;28;20027;-68
2022/03/06 00:42:36;;;;;;;21.05;9.50;;;-3.50;96.70;;;;;;5054653;28;20021;-68
2022/03/06 00:45:03;;;;;;;21.90;9.82;;;-3.60;96.60;;;;;;5054850;28;20531;-68
2022/03/06 00:47:29;;;;;;;21.00;8.50;;;-3.60;96.50;;;;;;5054790;28;20021;-68
2022/03/06 00:49:54;;;;;;;20.02;8.43;;;-3.70;96.50;;;;;;5054398;28;20113;-68
2022/03/06 00:52:20;;;;;;;20.13;9.10;;;-3.70;96.50;;;;;;5054747;28;20060;-68
2022/03/06 00:54:46;;;;;;;21.15;8.43;;;-3.80;96.30;;;;;;5054658;28;20036;-68
2022/03/06 00:57:11;;;;;;;21.67;8.65;;;-3.80;96.10;;;;;;5054625;28;20064;-68
2022/03/06 00:59:37;;;;;;;17.95;7.80;;;-3.90;95.90;;;;;;5054237;28;20115;-68
2022/03/06 01:02:06;;;;;;;17.20;8.73;;;-4.00;96.20;;;;;;5054518;28;20091;-68
2022/03/06 01:04:32;;;;;;;20.83;8.68;;;-4.10;96.50;;;;;;5054510;28;20108;-68
2022/03/06 01:06:58;;;;;;;21.13;9.13;;;-4.10;96.80;;;;;;5052881;28;20052;-68
2022/03/06 01:09:24;;;;;;;19.25;8.38;;;-4.20;97.20;;;;;;5054018;28;20036;-68
2022/03/06 01:11:51;;;;;;;20.30;9.15;;;-4.20;97.40;;;;;;5054106;28;20389;-68
2022/03/06 01:14:17;;;;;;;18.35;8.38;;;-4.20;97.50;;;;;;5054087;28;20112;-68
2022/03/06 01:16:42;;;;;;;17.85;8.00;;;-4.20;97.60;;;;;;5054568;28;20453;-68
2022/03/06 01:19:08;;;;;;;19.38;8.82;;;-4.20;97.70;;;;;;5053961;28;20036;-68
2022/03/06 01:21:34;;;;;;;20.67;8.98;;;-4.20;97.70;;;;;;5054495;28;20104;-68
2022/03/06 01:24:00;;;;;;;26.23;9.70;;;-4.20;97.70;;;;;;5052631;28;20487;-68
2022/03/06 01:26:25;;;;;;;26.58;10.32;;;-4.20;97.70;;;;;;5054331;28;20369;-68
2022/03/06 01:28:51;;;;;;;26.33;9.40;;;-4.20;97.70;;;;;;5053725;28;20021;-68
2022/03/06 01:31:17;;;;;;;23.52;10.05;;;-4.20;97.60;;;;;;5053735;28;20100;-68
2022/03/06 01:33:42;;;;;;;26.95;11.43;;;-4.20;97.70;;;;;;5053661;28;20029;-68
2022/03/06 01:36:08;;;;;;;23.02;9.68;;;-4.30;97.70;;;;;;5053636;28;20112;-68
2022/03/06 01:38:34;;;;;;;20.75;9.65;;;-4.30;97.90;;;;;;5053787;28;20124;-68
2022/03/06 01:41:00;;;;;;;19.70;8.52;;;-4.30;98.20;;;;;;5053636;28;20071;-68
2022/03/06 01:43:26;;;;;;;17.23;8.18;;;-4.30;98.40;;;;;;5052273;28;20021;-69
2022/03/06 01:45:51;;;;;;;17.40;8.30;;;-4.40;98.50;;;;;;5053031;28;20416;-68
2022/03/06 01:48:17;;;;;;;20.98;8.55;;;-4.40;98.50;;;;;;5053487;28;20029;-68
2022/03/06 01:50:44;;;;;;;17.63;7.95;;;-4.50;98.40;;;;;;5052152;28;20028;-68
2022/03/06 01:53:12;;;;;;;22.17;8.52;;;-4.50;98.50;;;;;;5053352;28;20029;-68
2022/03/06 01:55:38;;;;;;;17.33;7.82;;;-4.50;98.70;;;;;;5053916;28;20021;-68
2022/03/06 01:58:07;;;;;;;19.90;9.38;;;-4.60;98.60;;;;;;5053178;28;20128;-68
2022/03/06 02:00:36;;;;;;;19.70;8.18;;;-4.60;98.40;;;;;;5053273;28;20104;-68
2022/03/06 02:03:03;;;;;;;18.63;8.43;;;-4.70;98.20;;;;;;5053285;28;20115;-68
2022/03/06 02:05:29;;;;;;;19.42;8.45;;;-4.70;98.10;;;;;;5052034;28;20401;-68
2022/03/06 02:07:54;;;;;;;22.35;8.50;;;-4.70;98.10;;;;;;5053268;28;20032;-68
2022/03/06 02:10:20;;;;;;;22.08;8.85;;;-4.80;98.10;;;;;;5053216;28;20119;-68
2022/03/06 02:12:46;;;;;;;24.55;8.98;;;-4.80;98.40;;;;;;5053273;28;20473;-68
2022/03/06 02:15:15;;;;;;;23.55;8.85;;;-4.80;98.70;;;;;;5053235;28;20032;-68
2022/03/06 02:17:41;;;;;;;19.35;8.45;;;-4.80;99.00;;;;;;5053153;28;20385;-68
2022/03/06 02:20:10;;;;;;;21.38;9.43;;;-4.80;99.10;;;;;;5053112;28;20021;-68
2022/03/06 02:22:38;;;;;;;17.65;7.72;;;-4.80;99.20;;;;;;5053101;28;20532;-68
2022/03/06 02:25:14;;;;;;;18.65;8.00;;;-4.80;99.30;;;;;;5053419;28;20025;-68
2022/03/06 02:27:40;;;;;;;21.17;8.43;;;-4.80;99.20;;;;;;5051844;28;20083;-68
2022/03/06 02:30:12;;;;;;;20.35;7.80;;;-4.90;99.10;;;;;;5053214;28;20465;-68
2022/03/06 02:32:39;;;;;;;15.82;7.70;;;-4.90;99.10;;;;;;5052982;28;20049;-69
2022/03/06 02:35:06;;;;;;;20.60;7.95;;;-4.90;99.20;;;;;;5053247;28;20385;-68
2022/03/06 02:37:32;;;;;;;21.08;8.40;;;-4.90;99.30;;;;;;5052945;28;20389;-68
2022/03/06 02:40:05;;;;;;;20.30;8.60;;;-4.90;99.50;;;;;;5052846;28;20021;-69
2022/03/06 02:42:33;;;;;;;20.75;8.77;;;-4.90;99.80;;;;;;5052874;28;20078;-68
2022/03/06 02:45:00;;;;;;;20.08;8.20;;;-5.00;99.20;;;;;;5051612;28;20027;-68
2022/03/06 02:47:27;;;;;;;22.80;8.70;;;-5.10;98.90;;;;;;5053218;28;20025;-68
2022/03/06 02:49:53;;;;;;;20.15;8.57;;;-5.20;98.80;;;;;;5053195;28;20025;-68
2022/03/06 02:52:19;;;;;;;18.48;7.70;;;-5.30;99.00;;;;;;5052833;28;20029;-68
2022/03/06 02:54:45;;;;;;;20.50;8.68;;;-5.30;99.10;;;;;;5052846;28;20025;-68
2022/03/06 02:57:12;;;;;;;20.00;8.20;;;-5.30;99.10;;;;;;5054963;28;20040;-69
2022/03/06 02:59:39;;;;;;;19.92;8.40;;;-5.30;99.50;;;;;;5055528;28;20051;-70
2022/03/06 03:02:05;;;;;;;19.58;8.35;;;-5.40;99.50;;;;;;5056550;28;20017;-70
2022/03/06 03:04:32;;;;;;;16.55;7.22;;;-5.40;99.50;;;;;;5056851;28;20025;-70
2022/03/06 03:06:58;;;;;;;21.58;8.43;;;-5.40;99.60;;;;;;5057140;28;20017;-70
2022/03/06 03:09:25;;;;;;;22.48;8.73;;;-5.40;99.60;;;;;;5056428;28;20439;-70
2022/03/06 03:11:52;;;;;;;22.10;7.88;;;-5.40;99.70;;;;;;5056455;28;20029;-70
2022/03/06 03:14:18;;;;;;;19.42;8.25;;;-5.40;99.90;;;;;;5056568;28;20555;-70
2022/03/06 03:16:44;;;;;;;18.90;8.80;;;-5.40;99.90;;;;;;5056432;28;20041;-70
2022/03/06 03:19:10;;;;;;;21.10;9.27;;;-5.40;99.90;;;;;;5056508;28;20485;-70
2022/03/06 03:21:36;;;;;;;23.25;9.30;;;-5.40;99.90;;;;;;5056238;28;20068;-70
2022/03/06 03:24:02;;;;;;;18.92;9.15;;;-5.40;99.90;;;;;;5056467;28;20024;-70
2022/03/06 03:26:28;;;;;;;22.67;9.68;;;-5.40;99.90;;;;;;5056146;28;20036;-70
2022/03/06 03:28:54;;;;;;;21.95;9.20;;;-5.40;99.90;;;;;;5056255;28;20033;-70
2022/03/06 03:31:20;;;;;;;20.00;8.43;;;-5.40;99.90;;;;;;5054801;28;20075;-70
2022/03/06 03:33:46;;;;;;;20.58;9.02;;;-5.40;99.90;;;;;;5055959;28;20078;-70
2022/03/06 03:36:12;;;;;;;20.23;8.10;;;-5.40;99.90;;;;;;5056467;28;20028;-70
2022/03/06 03:38:39;;;;;;;22.35;9.07;;;-5.40;99.90;;;;;;5056286;28;20025;-70
2022/03/06 03:41:08;;;;;;;24.23;9.43;;;-5.50;99.90;;;;;;5055867;28;20021;-70
2022/03/06 03:43:34;;;;;;;19.75;8.77;;;-5.40;99.90;;;;;;5055810;28;20107;-70
2022/03/06 03:46:00;;;;;;;22.10;8.75;;;-5.50;99.90;;;;;;5054739;28;20443;-70
2022/03/06 03:48:30;;;;;;;21.05;8.05;;;-5.50;99.90;;;;;;5055650;28;20074;-70
2022/03/06 03:50:56;;;;;;;22.25;8.52;;;-5.50;99.90;;;;;;5055881;28;20492;-70
2022/03/06 03:53:23;;;;;;;19.55;7.32;;;-5.50;99.90;;;;;;5055928;28;20029;-70
2022/03/06 03:55:50;;;;;;;25.40;9.57;;;-5.60;99.90;;;;;;5055862;28;20024;-70
2022/03/06 03:58:16;;;;;;;21.00;8.98;;;-5.50;99.90;;;;;;5055400;28;20075;-70
2022/03/06 04:00:49;;;;;;;19.65;8.18;;;-5.70;99.90;;;;;;5055642;28;20023;-70
2022/03/06 04:03:14;;;;;;;17.02;7.97;;;-5.70;99.90;;;;;;5055715;28;20017;-70
2022/03/06 04:05:40;;;;;;;16.80;7.18;;;-5.80;99.90;;;;;;5055365;28;20074;-70
2022/03/06 04:08:06;;;;;;;18.98;8.07;;;-5.90;99.90;;;;;;5054858;28;20032;-70
2022/03/06 04:10:31;;;;;;;17.83;7.55;;;-5.90;99.90;;;;;;5055212;28;20025;-70
2022/03/06 04:12:57;;;;;;;15.70;6.90;;;-5.90;99.90;;;;;;5055230;28;20032;-70
2022/03/06 04:15:23;;;;;;;19.98;7.10;;;-5.90;99.90;;;;;;5055223;28;20032;-70
2022/03/06 04:17:49;;;;;;;19.58;7.63;;;-5.80;99.90;;;;;;5055118;28;20389;-70
2022/03/06 04:20:15;;;;;;;21.67;7.90;;;-5.80;99.90;;;;;;5055033;28;20092;-70
2022/03/06 04:22:40;;;;;;;17.85;8.18;;;-5.80;99.90;;;;;;5055318;28;20121;-70
2022/03/06 04:25:06;;;;;;;20.67;8.18;;;-5.80;99.90;;;;;;5054966;28;20029;-70
2022/03/06 04:27:32;;;;;;;26.70;9.82;;;-5.80;99.90;;;;;;5053751;28;20025;-70
2022/03/06 04:29:58;;;;;;;17.77;8.23;;;-5.90;99.90;;;;;;5054866;28;20374;-70
2022/03/06 04:32:23;;;;;;;24.95;9.75;;;-6.00;99.00;;;;;;5053581;28;20473;-70
2022/03/06 04:34:50;;;;;;;23.75;9.35;;;-6.20;99.50;;;;;;5055074;28;20033;-70
2022/03/06 04:37:16;;;;;;;18.40;8.13;;;-6.20;99.90;;;;;;5055540;28;20407;-70
2022/03/06 04:39:42;;;;;;;17.85;7.45;;;-6.30;99.90;;;;;;5054885;28;20025;-70
2022/03/06 04:42:07;;;;;;;20.85;7.82;;;-6.30;99.90;;;;;;5055015;28;20017;-70
2022/03/06 04:44:33;;;;;;;21.08;8.32;;;-6.30;99.90;;;;;;5054731;28;20032;-70
2022/03/06 04:46:59;;;;;;;19.02;8.45;;;-6.30;99.90;;;;;;5054577;28;20021;-69
2022/03/06 04:49:24;;;;;;;19.58;8.27;;;-6.30;99.90;;;;;;5054455;28;20474;-69
2022/03/06 04:51:50;;;;;;;17.73;7.90;;;-6.20;99.90;;;;;;5054789;28;20037;-70
2022/03/06 04:54:16;;;;;;;21.15;8.07;;;-6.20;99.90;;;;;;5054462;28;20031;-70
2022/03/06 04:56:42;;;;;;;18.75;8.80;;;-6.20;99.90;;;;;;5054204;28;20033;-70
2022/03/06 04:59:07;;;;;;;18.88;7.95;;;-6.20;99.90;;;;;;5054200;28;20024;-70
2022/03/06 05:01:33;;;;;;;20.73;8.10;;;-6.20;99.90;;;;;;5054634;28;20035;-70
2022/03/06 05:04:01;;;;;;;20.52;7.97;;;-6.20;99.90;;;;;;5054621;28;20017;-70
2022/03/06 05:06:27;;;;;;;15.80;7.53;;;-6.20;99.90;;;;;;5055144;28;20045;-70
2022/03/06 05:08:53;;;;;;;15.98;7.40;;;-6.10;99.90;;;;;;5054681;28;20024;-70
2022/03/06 05:11:19;;;;;;;19.52;6.88;;;-6.20;99.90;;;;;;5054164;28;20102;-70
2022/03/06 05:13:44;;;;;;;19.30;7.95;;;-6.20;99.90;;;;;;5054408;28;20025;-70
2022/03/06 05:16:10;;;;;;;21.15;8.88;;;-6.20;99.90;;;;;;5054064;28;20080;-70
2022/03/06 05:18:36;;;;;;;96.03;28.92;;;-6.20;99.90;;;;;;5053618;28;20112;-70
2022/03/06 05:21:02;;;;;;;108.45;34.03;;;-6.20;99.90;;;;;;5054311;28;20369;-70
2022/03/06 05:23:28;;;;;;;50.20;17.20;;;-6.20;99.90;;;;;;5086204;28;20025;-70
2022/03/06 05:25:54;;;;;;;21.35;10.07;;;-6.20;99.90;;;;;;5053828;28;20025;-70
2022/03/06 05:28:20;;;;;;;23.48;8.80;;;-6.30;99.90;;;;;;5086201;28;20028;-70
2022/03/06 05:30:46;;;;;;;24.52;9.13;;;-6.30;99.90;;;;;;5054047;28;20059;-69
2022/03/06 05:33:12;;;;;;;20.30;8.73;;;-6.40;99.90;;;;;;5053758;28;20031;-70
2022/03/06 05:35:38;;;;;;;24.20;9.60;;;-6.40;99.90;;;;;;5053965;28;20111;-70
2022/03/06 05:38:04;;;;;;;23.63;8.90;;;-6.40;99.90;;;;;;5052334;28;20056;-70
2022/03/06 05:40:29;;;;;;;58.05;19.15;;;-6.40;99.90;;;;;;5053713;28;20420;-70
2022/03/06 05:42:55;;;;;;;109.97;37.38;;;-6.50;99.90;;;;;;5053990;28;20083;-70
2022/03/06 05:45:21;;;;;;;86.80;32.90;;;-6.50;99.90;;;;;;5053772;28;20025;-70
2022/03/06 05:47:47;;;;;;;50.83;21.17;;;-6.40;99.90;;;;;;5053846;28;20116;-70
2022/03/06 05:50:13;;;;;;;39.17;15.55;;;-6.40;99.90;;;;;;5053636;28;20100;-70
2022/03/06 05:52:39;;;;;;;30.35;11.13;;;-6.50;99.90;;;;;;5053491;28;20025;-69
2022/03/06 05:55:06;;;;;;;25.88;10.00;;;-6.50;99.90;;;;;;5053391;28;20381;-69
2022/03/06 05:57:32;;;;;;;25.05;10.07;;;-6.50;99.90;;;;;;5053411;28;20036;-69
2022/03/06 05:59:57;;;;;;;21.77;9.25;;;-6.40;99.90;;;;;;5053218;28;20036;-69
2022/03/06 06:02:23;;;;;;;23.15;9.15;;;-6.40;99.90;;;;;;5053618;28;20028;-69
2022/03/06 06:04:49;;;;;;;21.20;8.77;;;-6.30;99.90;;;;;;5053313;28;20025;-69
2022/03/06 06:07:15;;;;;;;21.58;8.45;;;-6.30;99.90;;;;;;5053329;28;20032;-69
2022/03/06 06:09:41;;;;;;;20.45;8.85;;;-6.30;99.90;;;;;;5053536;28;20069;-69
2022/03/06 06:12:08;;;;;;;20.88;8.90;;;-6.30;99.90;;;;;;5053267;28;20036;-69
2022/03/06 06:14:34;;;;;;;24.45;9.77;;;-6.30;99.90;;;;;;5053851;28;20039;-68
2022/03/06 06:17:00;;;;;;;24.63;8.57;;;-6.30;99.90;;;;;;5053565;28;20029;-69
2022/03/06 06:19:25;;;;;;;20.83;8.35;;;-6.40;99.90;;;;;;5053347;28;20025;-69
2022/03/06 06:21:51;;;;;;;20.17;8.20;;;-6.40;99.90;;;;;;5053506;28;20489;-69
2022/03/06 06:24:17;;;;;;;20.00;7.90;;;-6.40;99.90;;;;;;5053291;28;20032;-69
2022/03/06 06:26:47;;;;;;;22.27;8.32;;;-6.40;99.90;;;;;;5053155;28;20056;-71
2022/03/06 06:29:13;;;;;;;26.27;9.63;;;-6.40;99.90;;;;;;5051741;28;20057;-71
2022/03/06 06:31:40;;;;;;;18.70;7.88;;;-6.40;99.90;;;;;;5054491;28;20068;-71
2022/03/06 06:34:05;;;;;;;24.10;9.10;;;-6.50;99.90;;;;;;5057230;28;20049;-71
2022/03/06 06:36:31;;;;;;;23.17;8.93;;;-6.50;99.90;;;;;;5057530;28;20056;-71
2022/03/06 06:38:57;;;;;;;20.35;9.10;;;-6.50;99.90;;;;;;5055785;28;20504;-70
2022/03/06 06:41:23;;;;;;;20.83;8.48;;;-6.50;99.90;;;;;;5057569;28;20028;-68
2022/03/06 06:43:49;;;;;;;25.10;9.02;;;-6.40;99.90;;;;;;5057373;28;20067;-68
2022/03/06 06:46:15;;;;;;;21.63;9.73;;;-6.40;99.90;;;;;;5055730;28;20032;-67
2022/03/06 06:48:41;;;;;;;21.67;8.93;;;-6.30;99.90;;;;;;5057131;28;20400;-70
2022/03/06 06:51:08;;;;;;;22.55;9.05;;;-6.30;99.90;;;;;;5056831;28;20032;-70
2022/03/06 06:53:34;;;;;;;24.60;9.45;;;-6.30;99.90;;;;;;5056791;28;20060;-70
2022/03/06 06:56:00;;;;;;;26.95;10.48;;;-6.30;99.90;;;;;;5057138;28;20037;-69
2022/03/06 06:58:31;;;;;;;24.75;10.27;;;-6.20;99.90;;;;;;5056516;28;20037;-69
2022/03/06 07:00:57;;;;;;;24.98;9.48;;;-6.20;99.90;;;;;;5057029;28;20025;-70
2022/03/06 07:03:25;;;;;;;23.42;9.30;;;-6.20;99.90;;;;;;5056574;28;20032;-69
2022/03/06 07:06:00;;;;;;;32.63;11.45;;;-6.20;99.90;;;;;;5056791;28;20028;-69
2022/03/06 07:08:26;;;;;;;31.73;11.02;;;-6.20;99.90;;;;;;5056984;28;20032;-67
2022/03/06 07:10:52;;;;;;;23.25;9.73;;;-6.20;99.90;;;;;;5056776;28;20032;-68
2022/03/06 07:13:18;;;;;;;24.23;9.82;;;-6.20;99.90;;;;;;5056682;28;20064;-68
2022/03/06 07:15:43;;;;;;;24.48;9.82;;;-6.10;99.90;;;;;;5056697;28;20028;-68
2022/03/06 07:18:09;;;;;;;25.58;10.15;;;-6.10;99.90;;;;;;5056249;28;20036;-68
2022/03/06 07:20:35;;;;;;;26.42;10.43;;;-6.00;99.90;;;;;;5056485;28;20465;-68
2022/03/06 07:23:00;;;;;;;21.65;8.98;;;-5.90;99.90;;;;;;5056172;28;20060;-68
2022/03/06 07:25:26;;;;;;;26.40;11.00;;;-5.90;99.90;;;;;;5056229;28;20100;-68
2022/03/06 07:27:52;;;;;;;30.17;11.68;;;-5.80;99.90;;;;;;5056415;28;20154;-68
2022/03/06 07:30:18;;;;;;;26.98;10.48;;;-5.80;99.90;;;;;;5056272;28;20453;-67
2022/03/06 07:32:50;;;;;;;26.08;9.98;;;-5.80;99.90;;;;;;5056012;28;20057;-67
2022/03/06 07:35:17;;;;;;;22.85;9.95;;;-5.90;99.90;;;;;;5054994;28;20029;-67
2022/03/06 07:37:44;;;;;;;25.98;11.10;;;-5.80;99.90;;;;;;5056170;28;20082;-67
2022/03/06 07:40:11;;;;;;;27.08;11.63;;;-5.80;99.90;;;;;;5055907;28;20055;-67
2022/03/06 07:42:37;;;;;;;33.03;12.13;;;-5.80;99.90;;;;;;5054961;28;20108;-67
2022/03/06 07:45:04;;;;;;;32.22;12.23;;;-5.70;99.90;;;;;;5055756;28;20020;-67
2022/03/06 07:47:30;;;;;;;26.55;11.63;;;-5.70;99.90;;;;;;5055747;28;20362;-67
2022/03/06 07:49:56;;;;;;;28.42;11.70;;;-5.60;99.90;;;;;;5055678;28;20074;-67
2022/03/06 07:52:22;;;;;;;27.92;10.80;;;-5.50;99.90;;;;;;5055948;28;20025;-67
2022/03/06 07:54:47;;;;;;;32.10;12.13;;;-5.40;99.90;;;;;;5056182;28;20029;-67
2022/03/06 07:57:13;;;;;;;29.63;11.88;;;-5.30;99.90;;;;;;5055396;28;20047;-67
2022/03/06 07:59:39;;;;;;;26.92;10.82;;;-5.20;99.90;;;;;;5055402;28;20029;-67
2022/03/06 08:02:05;;;;;;;24.13;10.75;;;-5.10;99.90;;;;;;5055422;28;20028;-67
2022/03/06 08:04:30;;;;;;;27.40;10.63;;;-5.00;99.90;;;;;;5055404;28;20083;-67
2022/03/06 08:06:56;;;;;;;29.52;11.25;;;-4.90;99.90;;;;;;5055349;28;20028;-67
2022/03/06 08:09:24;;;;;;;27.33;11.60;;;-4.90;99.90;;;;;;5055236;28;20033;-67
2022/03/06 08:11:51;;;;;;;30.98;12.82;;;-4.80;99.90;;;;;;5053970;28;20366;-67
2022/03/06 08:14:16;;;;;;;28.35;11.52;;;-4.80;99.90;;;;;;5055180;28;20036;-67
2022/03/06 08:16:42;;;;;;;28.40;12.07;;;-4.80;99.90;;;;;;5053998;28;20032;-67
2022/03/06 08:19:08;;;;;;;32.00;13.25;;;-4.70;99.90;;;;;;5054975;28;20481;-67
2022/03/06 08:21:34;;;;;;;29.17;11.35;;;-4.60;99.90;;;;;;5054933;28;20021;-67
2022/03/06 08:23:59;;;;;;;27.10;12.07;;;-4.50;99.90;;;;;;5054983;28;20473;-67
2022/03/06 08:26:25;;;;;;;25.10;11.77;;;-4.40;99.90;;;;;;5054995;28;20068;-67
2022/03/06 08:28:51;;;;;;;35.00;14.05;;;-4.30;99.90;;;;;;5054917;28;20021;-67
2022/03/06 08:31:17;;;;;;;34.97;14.13;;;-4.20;99.90;;;;;;5087179;28;20029;-67
2022/03/06 08:33:42;;;;;;;33.67;15.10;;;-4.10;99.90;;;;;;5054887;28;20039;-67
2022/03/06 08:36:08;;;;;;;36.75;14.70;;;-4.10;99.90;;;;;;5055091;28;20056;-67
2022/03/06 08:38:34;;;;;;;32.30;14.15;;;-4.10;99.90;;;;;;5054652;28;20497;-67
2022/03/06 08:41:00;;;;;;;32.42;13.98;;;-4.00;99.90;;;;;;5054790;28;20028;-67
2022/03/06 08:43:25;;;;;;;28.65;12.98;;;-3.80;99.90;;;;;;5086997;28;20461;-66
2022/03/06 08:45:51;;;;;;;31.90;12.40;;;-3.80;99.90;;;;;;5054885;28;20055;-67
2022/03/06 08:48:17;;;;;;;34.28;13.52;;;-3.60;99.90;;;;;;5054901;28;20060;-67
2022/03/06 08:50:43;;;;;;;35.58;14.18;;;-3.60;99.90;;;;;;5054454;28;20032;-67
2022/03/06 08:53:08;;;;;;;32.92;13.23;;;-3.50;99.90;;;;;;5054496;28;20029;-66
2022/03/06 08:55:34;;;;;;;32.28;13.60;;;-3.50;99.90;;;;;;5054496;28;20393;-66
2022/03/06 08:58:00;;;;;;;35.58;14.88;;;-3.40;99.90;;;;;;5054889;28;20037;-70
2022/03/06 09:00:26;;;;;;;32.33;14.65;;;-3.30;99.90;;;;;;5054367;28;20017;-70
2022/03/06 09:02:51;;;;;;;34.75;14.60;;;-3.10;99.90;;;;;;5054359;28;20362;-70
2022/03/06 09:05:20;;;;;;;34.30;15.07;;;-3.00;99.90;;;;;;5086546;28;20017;-70
2022/03/06 09:07:46;;;;;;;28.45;14.07;;;-2.90;99.90;;;;;;5054634;28;20021;-70
2022/03/06 09:10:12;;;;;;;34.88;15.32;;;-2.70;99.90;;;;;;5054075;28;20522;-70
2022/03/06 09:12:39;;;;;;;34.95;15.25;;;-2.60;99.90;;;;;;5086397;28;20028;-70
2022/03/06 09:15:06;;;;;;;38.00;16.52;;;-2.50;99.70;;;;;;5054136;28;20028;-69
2022/03/06 09:17:32;;;;;;;36.13;15.60;;;-2.40;99.20;;;;;;5054011;28;20477;-69
2022/03/06 09:19:58;;;;;;;33.05;15.45;;;-2.30;98.20;;;;;;5052592;28;20124;-69
2022/03/06 09:22:24;;;;;;;34.60;14.75;;;-2.30;98.00;;;;;;5053980;28;20029;-69
2022/03/06 09:24:49;;;;;;;39.40;17.25;;;-2.20;97.80;;;;;;5053906;28;20466;-69
2022/03/06 09:27:15;;;;;;;34.15;15.10;;;-2.00;97.50;;;;;;5054092;28;20103;-69
2022/03/06 09:29:41;;;;;;;39.90;16.83;;;-1.90;96.80;;;;;;5053756;28;20035;-69
2022/03/06 09:32:07;;;;;;;42.08;18.77;;;-1.80;96.60;;;;;;5054031;28;20465;-70
2022/03/06 09:34:33;;;;;;;43.92;17.27;;;-1.70;96.60;;;;;;5053754;28;20104;-69
2022/03/06 09:36:59;;;;;;;41.08;17.70;;;-1.60;96.60;;;;;;5052670;28;20137;-69
2022/03/06 09:39:24;;;;;;;34.22;16.00;;;-1.40;95.30;;;;;;5053755;28;20032;-69
2022/03/06 09:41:54;;;;;;;33.90;15.75;;;-1.30;95.30;;;;;;5053673;28;20023;-69
2022/03/06 09:44:22;;;;;;;32.88;15.65;;;-1.20;95.30;;;;;;5053595;28;20025;-69
2022/03/06 09:46:48;;;;;;;32.75;14.55;;;-1.10;95.40;;;;;;5053816;28;20530;-69
2022/03/06 09:49:14;;;;;;;35.03;14.48;;;-1.00;94.80;;;;;;5053414;28;20040;-70
2022/03/06 09:51:41;;;;;;;34.22;13.93;;;-0.90;94.40;;;;;;5053725;28;20377;-70
2022/03/06 09:54:09;;;;;;;33.83;15.02;;;-0.90;94.10;;;;;;5053612;28;20029;-69
2022/03/06 09:56:35;;;;;;;33.97;13.68;;;-0.80;93.80;;;;;;5052330;28;20037;-69
2022/03/06 09:59:02;;;;;;;23.23;11.63;;;-0.70;93.80;;;;;;5053539;28;20029;-69
2022/03/06 10:01:28;;;;;;;26.25;13.18;;;-0.60;92.80;;;;;;5053616;28;20024;-69
2022/03/06 10:03:54;;;;;;;23.45;10.88;;;-0.50;93.00;;;;;;5053289;28;20025;-70
2022/03/06 10:06:19;;;;;;;24.05;11.18;;;-0.50;91.50;;;;;;5052049;28;20025;-70
2022/03/06 10:08:45;;;;;;;23.38;10.68;;;-0.40;91.60;;;;;;5053694;28;20102;-69
2022/03/06 10:11:13;;;;;;;23.02;9.93;;;-0.40;91.20;;;;;;5053494;28;20025;-70
2022/03/06 10:13:43;;;;;;;20.13;9.57;;;-0.30;91.50;;;;;;5052864;28;20389;-69
2022/03/06 10:16:14;;;;;;;22.10;10.10;;;-0.20;91.30;;;;;;5053824;28;20368;-69
2022/03/06 10:18:44;;;;;;;20.63;10.00;;;-0.10;90.40;;;;;;5053283;28;20025;-69
2022/03/06 10:21:15;;;;;;;23.35;10.32;;;0.10;90.20;;;;;;5053662;28;20374;-69
2022/03/06 10:23:42;;;;;;;24.77;9.60;;;0.10;89.70;;;;;;5053418;28;20028;-70
2022/03/06 10:26:16;;;;;;;22.70;10.52;;;0.20;88.20;;;;;;5053111;28;20393;-69
2022/03/06 10:28:58;;;;;;;21.88;10.50;;;0.40;87.50;;;;;;5053275;28;20028;-69
2022/03/06 10:31:26;;;;;;;22.85;10.30;;;0.40;86.70;;;;;;5051852;28;20033;-69
2022/03/06 10:34:06;;;;;;;23.00;9.65;;;0.50;84.70;;;;;;5085357;28;20029;-69
2022/03/06 10:36:44;;;;;;;22.10;9.20;;;0.60;86.60;;;;;;5053580;28;20036;-69
2022/03/06 10:39:14;;;;;;;21.55;9.77;;;0.60;85.60;;;;;;5053142;28;20096;-70
2022/03/06 10:41:42;;;;;;;21.35;9.77;;;0.80;83.50;;;;;;5053053;28;20032;-69
2022/03/06 10:44:10;;;;;;;22.42;10.90;;;0.80;82.80;;;;;;5051678;28;20026;-69
2022/03/06 10:46:37;;;;;;;23.88;10.63;;;0.90;83.40;;;;;;5052934;28;20021;-70
2022/03/06 10:49:16;;;;;;;24.83;10.82;;;1.10;82.50;;;;;;5052869;28;20021;-70
2022/03/06 10:51:47;;;;;;;24.23;10.75;;;1.20;83.20;;;;;;5053195;28;20036;-69
2022/03/06 10:54:14;;;;;;;23.95;10.40;;;1.20;81.80;;;;;;5053178;28;20031;-69
2022/03/06 10:56:43;;;;;;;21.33;10.30;;;1.30;79.70;;;;;;5053075;28;20036;-69
2022/03/06 10:59:10;;;;;;;24.42;10.55;;;1.30;80.90;;;;;;5052725;28;20079;-70
2022/03/06 11:01:38;;;;;;;21.52;10.30;;;1.30;82.50;;;;;;5053061;28;20025;-70
2022/03/06 11:04:06;;;;;;;21.85;10.55;;;1.40;81.30;;;;;;5052814;28;20021;-69
2022/03/06 11:06:40;;;;;;;22.88;10.60;;;1.50;80.30;;;;;;5053062;28;20017;-70
2022/03/06 11:09:13;;;;;;;24.75;10.98;;;1.60;81.60;;;;;;5052630;28;20484;-70
2022/03/06 11:11:47;;;;;;;25.50;11.82;;;1.60;83.40;;;;;;5085092;28;20029;-70
2022/03/06 11:14:14;;;;;;;21.33;9.98;;;1.70;83.60;;;;;;5052947;28;20105;-70
2022/03/06 11:16:41;;;;;;;23.02;10.32;;;1.80;83.30;;;;;;5052626;28;20036;-70
2022/03/06 11:19:07;;;;;;;28.38;11.05;;;1.90;83.40;;;;;;5055531;28;20032;-70
2022/03/06 11:21:39;;;;;;;22.85;10.68;;;2.10;83.10;;;;;;5056547;28;20520;-70
2022/03/06 11:24:28;;;;;;;26.08;11.60;;;2.20;80.40;;;;;;5056495;28;20025;-70
2022/03/06 11:27:25;;;;;;;20.58;10.38;;;2.30;80.00;;;;;;5056516;28;20031;-70
2022/03/06 11:30:02;;;;;;;21.80;10.25;;;2.40;79.70;;;;;;5056028;28;20021;-70
2022/03/06 11:32:31;;;;;;;22.52;11.32;;;2.50;80.00;;;;;;5088321;28;20028;-71
2022/03/06 11:35:01;;;;;;;20.15;10.45;;;2.60;78.10;;;;;;5056362;28;20021;-71
2022/03/06 11:37:30;;;;;;;23.08;10.30;;;2.60;77.20;;;;;;5056047;28;20024;-71
2022/03/06 11:39:56;;;;;;;22.00;10.15;;;2.70;77.00;;;;;;5055827;28;20029;-70
2022/03/06 11:42:59;;;;;;;20.23;9.50;;;2.70;77.00;;;;;;5055962;28;20021;-71
2022/03/06 11:45:51;;;;;;;20.13;9.23;;;2.80;77.20;;;;;;5056163;28;20029;-71
2022/03/06 11:48:23;;;;;;;21.80;8.75;;;3.00;74.10;;;;;;5055755;28;20039;-71
2022/03/06 11:51:15;;;;;;;20.92;9.18;;;3.10;73.90;;;;;;5054573;28;20025;-71
2022/03/06 11:54:03;;;;;;;;;;;3.20;71.10;;;;;;5056430;28;20548;-71
2022/03/06 11:56:34;;;;;;;22.02;9.77;;;3.40;72.40;;;;;;5054329;28;19915;-72
2022/03/06 11:59:16;;;;;;;18.95;9.43;;;3.50;72.30;;;;;;5055463;28;20029;-71
2022/03/06 12:01:47;;;;;;;19.70;9.00;;;3.40;68.30;;;;;;5055598;28;20020;-71
2022/03/06 12:04:27;;;;;;;19.03;9.37;;;3.40;68.80;;;;;;5056035;28;20017;-71
2022/03/06 12:07:03;;;;;;;19.40;9.32;;;3.50;69.50;;;;;;5056612;28;20747;-71
2022/03/06 12:09:36;;;;;;;19.73;9.43;;;3.60;68.60;;;;;;5055822;28;20029;-71
2022/03/06 12:12:08;;;;;;;21.42;8.98;;;3.60;68.40;;;;;;5054178;28;20541;-71
2022/03/06 12:14:55;;;;;;;17.88;9.25;;;3.70;67.40;;;;;;5055903;28;20191;-71
2022/03/06 12:17:33;;;;;;;18.52;8.88;;;3.70;68.10;;;;;;5056396;28;20025;-71
2022/03/06 12:19:58;;;;;;;16.80;8.70;;;3.80;67.70;;;;;;5055734;28;20032;-71
2022/03/06 12:22:30;;;;;;;19.30;10.10;;;3.90;67.60;;;;;;5055083;28;20025;-71
2022/03/06 12:25:10;;;;;;;20.33;9.73;;;4.00;67.50;;;;;;5056124;28;20404;-71
2022/03/06 12:27:38;;;;;;;20.13;9.20;;;4.00;67.40;;;;;;5055482;28;20094;-71
2022/03/06 12:30:12;;;;;;;19.15;9.57;;;4.10;67.50;;;;;;5054956;28;20045;-71
2022/03/06 12:32:40;;;;;;;16.65;8.65;;;4.30;66.80;;;;;;5057323;28;20060;-71
2022/03/06 12:35:19;;;;;;;15.77;8.00;;;4.30;65.80;;;;;;5055415;28;20031;-71
2022/03/06 12:37:59;;;;;;;16.30;8.73;;;4.40;65.30;;;;;;5056347;28;20075;-71